Hovedside
METAR-TAF:

METAR-TAF

Lufthavner :

Horta lufthavn

Horta, Azorene, Portugal

breddegrad: 38-31N, lengdegrad: 028-43W, høyde over havet: 40 m

Gjeldene værobservasjon

Denne rapporten ble laget for 34 minutter siden, klokken 15:00 UTC
Vind 10 kt fra Vest-nordvest
Temperatur 21°C
Luftfuktighet 83%
Trykk 1027 hPa
Sikt 10 km eller mer
Få skyer i en høyde av 1200 ft
Brutte skyer i en høyde av 3500 ft
regnbyger i nærheten

METAR: LPHR 301500Z 30010KT 9999 VCSH FEW012 BKN035 21/18 Q1027

Tid: 15:34 (15:34 UTC)

Varsel

Denne rapporten ble laget for 1 time og 34 minutter siden, klokken 14:00 UTC
Varsel gyldig fra 30. klokken 15 UTC til 30. klokken 24 UTC
Vind 12 kt fra Vest-nordvest
Sikt 10 km eller mer
Få skyer i en høyde av 1500 ft
Brutte skyer i en høyde av 3500 ft
Blir
fra 30. klokken 19 UTC til 30. klokken 21 UTC
Vind 5 kt fra skiftende retning
Spredte skyer i en høyde av 1200 ft

TAF: LPHR 301400Z 3015/3024 30012KT 9999 FEW015 BKN035 BECMG 3019/3021 VRB05KT SCT012

Værobservasjoner og værvarsel for over 4000 flyplasser (METAR- og TAF-rapporter).

Tilgjengelige stasjoner er representert av de røde og gule prikkene på kartet.

Hold musepekeren over prikken for å se navnet på stasjonen.

Klikk så for å se værobservasjoner og -varsler.

For å forandre kartet kan du klikke på den grønne knappen med svart kryss for å zoome inn, på den grønne knappen med strek for å zoome ut, eller på de grønne pilene for å se tilstøtende kart.


METAR-TAF: